createdAt,value
2018-11-25T00:00:31.656Z,79.91
2018-11-25T00:03:00.603Z,80.19
2018-11-25T00:05:29.479Z,80.29
2018-11-25T00:07:58.388Z,80.00
2018-11-25T00:10:27.332Z,79.76
2018-11-25T00:12:56.246Z,79.84
2018-11-25T00:15:25.212Z,79.92
2018-11-25T00:17:54.127Z,80.43
2018-11-25T00:20:23.071Z,80.11
2018-11-25T00:22:51.979Z,80.32
2018-11-25T00:25:20.896Z,80.38
2018-11-25T00:27:49.792Z,80.43
2018-11-25T00:30:18.715Z,80.46
2018-11-25T00:32:47.605Z,79.23
2018-11-25T00:35:17.210Z,79.82
2018-11-25T00:37:48.308Z,80.01
2018-11-25T00:40:15.673Z,80.16
2018-11-25T00:42:45.125Z,80.37
2018-11-25T00:45:15.299Z,78.21
2018-11-25T00:47:44.210Z,79.18
2018-11-25T00:50:13.917Z,79.28
2018-11-25T00:52:42.845Z,79.54
2018-11-25T00:55:18.119Z,79.84
2018-11-25T00:57:47.026Z,79.85
2018-11-25T01:00:19.675Z,79.87
2018-11-25T01:02:49.541Z,79.37
2018-11-25T01:05:18.477Z,79.04
2018-11-25T01:07:47.363Z,78.95
2018-11-25T01:10:16.810Z,79.51
2018-11-25T01:12:46.252Z,79.40
2018-11-25T01:15:16.031Z,78.15
2018-11-25T01:17:45.000Z,79.71
2018-11-25T01:20:18.040Z,79.66
2018-11-25T01:22:46.955Z,79.96
2018-11-25T01:25:15.905Z,79.82
2018-11-25T01:27:44.789Z,79.69
2018-11-25T01:30:17.663Z,79.83
2018-11-25T01:32:46.544Z,79.98
2018-11-25T01:35:15.531Z,80.38
2018-11-25T01:37:44.451Z,80.20
2018-11-25T01:40:17.330Z,80.44
2018-11-25T01:42:46.269Z,80.61
2018-11-25T01:45:16.038Z,80.31
2018-11-25T01:47:44.998Z,80.33
2018-11-25T01:50:14.861Z,78.85
2018-11-25T01:52:43.777Z,78.12
2018-11-25T01:55:16.610Z,78.97
2018-11-25T01:57:45.601Z,79.24
2018-11-25T02:00:21.230Z,79.24
2018-11-25T02:02:50.273Z,79.29
2018-11-25T02:05:19.247Z,79.18
2018-11-25T02:07:48.069Z,79.02
2018-11-25T02:10:17.888Z,79.08
2018-11-25T02:12:46.804Z,79.20
2018-11-25T02:15:16.487Z,79.63
2018-11-25T02:17:45.387Z,79.36
2018-11-25T02:20:18.842Z,79.23
2018-11-25T02:22:47.778Z,78.41
2018-11-25T02:25:16.695Z,79.46
2018-11-25T02:27:45.626Z,79.55
2018-11-25T02:30:18.151Z,79.59
2018-11-25T02:32:47.347Z,79.38
2018-11-25T02:35:16.798Z,79.73
2018-11-25T02:37:45.820Z,79.61
2018-11-25T02:40:15.578Z,79.37
2018-11-25T02:42:44.485Z,79.20
2018-11-25T02:45:17.255Z,78.94
2018-11-25T02:47:46.175Z,78.97
2018-11-25T02:50:32.816Z,79.32
2018-11-25T02:53:02.926Z,79.61
2018-11-25T02:55:31.809Z,79.95
2018-11-25T02:58:00.959Z,80.55
2018-11-25T03:00:29.633Z,80.17
2018-11-25T03:02:58.572Z,80.58
2018-11-25T03:05:27.493Z,80.92
2018-11-25T03:07:56.409Z,80.49
2018-11-25T03:10:25.356Z,80.88
2018-11-25T03:12:54.297Z,81.22
2018-11-25T03:15:23.326Z,80.94
2018-11-25T03:17:52.168Z,79.78
2018-11-25T03:20:21.078Z,80.68
2018-11-25T03:22:50.054Z,80.56
2018-11-25T03:25:20.004Z,80.66
2018-11-25T03:27:48.984Z,80.48
2018-11-25T03:30:21.697Z,80.48
2018-11-25T03:32:54.177Z,80.49
2018-11-25T03:35:23.117Z,80.95
2018-11-25T03:37:52.016Z,80.90
2018-11-25T03:40:20.912Z,80.08
2018-11-25T03:42:49.815Z,80.77
2018-11-25T03:45:22.338Z,80.83
2018-11-25T03:47:51.247Z,81.28
2018-11-25T03:50:20.184Z,81.32
2018-11-25T03:52:49.072Z,81.47
2018-11-25T03:55:18.226Z,81.83
2018-11-25T03:57:47.146Z,81.65
2018-11-25T04:00:22.566Z,81.93
2018-11-25T04:02:54.841Z,82.03
2018-11-25T04:05:23.742Z,80.42
2018-11-25T04:07:52.630Z,81.63
2018-11-25T04:10:21.523Z,81.89
2018-11-25T04:12:50.451Z,82.04
2018-11-25T04:15:19.942Z,82.05
2018-11-25T04:17:49.031Z,82.09
2018-11-25T04:20:21.332Z,82.16
2018-11-25T04:22:50.590Z,82.49
2018-11-25T04:25:19.430Z,82.57
2018-11-25T04:27:48.313Z,82.34
2018-11-25T04:30:20.688Z,82.05
2018-11-25T04:32:50.604Z,81.95
2018-11-25T04:35:19.530Z,81.93
2018-11-25T04:37:48.492Z,82.04
2018-11-25T04:40:18.250Z,81.36
2018-11-25T04:42:47.158Z,82.29
2018-11-25T04:45:16.783Z,82.09
2018-11-25T04:47:46.536Z,81.98
2018-11-25T04:50:21.712Z,81.99
2018-11-25T04:52:50.634Z,82.18
2018-11-25T04:55:19.576Z,82.37
2018-11-25T04:57:54.238Z,81.99
2018-11-25T05:00:23.187Z,80.99
2018-11-25T05:02:52.265Z,82.08
2018-11-25T05:05:21.199Z,82.01
2018-11-25T05:07:50.185Z,82.47
2018-11-25T05:10:19.184Z,82.09
2018-11-25T05:12:48.162Z,82.10
2018-11-25T05:15:20.850Z,81.97
2018-11-25T05:17:49.924Z,82.41
2018-11-25T05:20:19.564Z,82.30
2018-11-25T05:22:48.510Z,82.28
2018-11-25T05:25:18.283Z,82.39
2018-11-25T05:27:47.171Z,82.45
2018-11-25T05:30:16.962Z,82.15
2018-11-25T05:32:45.869Z,82.02
2018-11-25T05:35:18.431Z,82.25
2018-11-25T05:37:47.419Z,82.40
2018-11-25T05:40:16.615Z,82.35
2018-11-25T05:42:45.601Z,82.20
2018-11-25T05:45:15.629Z,80.69
2018-11-25T05:47:44.474Z,81.56
2018-11-25T05:50:14.328Z,81.67
2018-11-25T05:52:43.271Z,81.74
2018-11-25T05:55:12.698Z,79.62
2018-11-25T05:57:41.695Z,80.72
2018-11-25T06:00:26.150Z,80.92
2018-11-25T06:02:55.079Z,80.70
2018-11-25T06:05:23.978Z,81.05
2018-11-25T06:07:52.910Z,81.18
2018-11-25T06:10:21.782Z,81.27
2018-11-25T06:12:50.742Z,81.30
2018-11-25T06:15:19.650Z,81.24
2018-11-25T06:17:48.548Z,81.03
2018-11-25T06:20:17.922Z,79.33
2018-11-25T06:22:47.073Z,80.35
2018-11-25T06:25:19.927Z,80.56
2018-11-25T06:27:48.899Z,80.91
2018-11-25T06:30:21.079Z,80.33
2018-11-25T06:32:50.016Z,80.15
2018-11-25T06:35:19.679Z,80.16
2018-11-25T06:37:48.639Z,80.03
2018-11-25T06:40:20.752Z,80.16
2018-11-25T06:42:49.700Z,80.59
2018-11-25T06:45:22.605Z,80.44
2018-11-25T06:47:51.552Z,80.35
2018-11-25T06:50:20.437Z,80.65
2018-11-25T06:52:49.337Z,80.71
2018-11-25T06:55:18.222Z,80.53
2018-11-25T06:57:47.171Z,81.18
2018-11-25T07:00:19.833Z,81.32
2018-11-25T07:02:48.735Z,81.24
2018-11-25T07:05:17.629Z,81.02
2018-11-25T07:07:46.567Z,81.45
2018-11-25T07:10:19.827Z,81.12
2018-11-25T07:12:50.162Z,80.83
2018-11-25T07:15:19.307Z,79.56
2018-11-25T07:17:48.193Z,80.51
2018-11-25T07:20:18.000Z,80.70
2018-11-25T07:22:46.901Z,80.64
2018-11-25T07:25:22.978Z,80.60
2018-11-25T07:27:51.953Z,80.39
2018-11-25T07:30:27.951Z,80.74
2018-11-25T07:32:56.941Z,81.01
2018-11-25T07:35:26.964Z,81.01
2018-11-25T07:37:55.894Z,80.77
2018-11-25T07:40:25.431Z,81.16
2018-11-25T07:42:54.393Z,81.02
2018-11-25T07:45:30.054Z,79.87
2018-11-25T07:47:53.280Z,80.57
2018-11-25T07:50:22.154Z,80.81
2018-11-25T07:52:51.617Z,80.57
2018-11-25T07:55:24.321Z,80.40
2018-11-25T07:57:54.239Z,80.13
2018-11-25T08:00:24.134Z,79.64
2018-11-25T08:02:53.084Z,79.34
2018-11-25T08:05:28.426Z,79.43
2018-11-25T08:07:57.342Z,79.64
2018-11-25T08:10:26.331Z,80.08
2018-11-25T08:12:56.524Z,79.83
2018-11-25T08:15:24.248Z,80.67
2018-11-25T08:17:53.138Z,80.44
2018-11-25T08:20:22.734Z,80.77
2018-11-25T08:22:51.709Z,80.39
2018-11-25T08:25:23.633Z,80.28
2018-11-25T08:27:52.546Z,80.33
2018-11-25T08:30:24.637Z,80.38
2018-11-25T08:32:53.647Z,80.68
2018-11-25T08:35:22.574Z,80.37
2018-11-25T08:37:51.470Z,80.18
2018-11-25T08:40:24.373Z,80.43
2018-11-25T08:42:53.614Z,79.61
2018-11-25T08:45:22.576Z,80.53
2018-11-25T08:47:51.559Z,80.58
2018-11-25T08:50:20.669Z,80.54
2018-11-25T08:52:53.482Z,80.36
2018-11-25T08:55:25.983Z,79.18
2018-11-25T08:57:55.204Z,80.31
2018-11-25T09:00:25.016Z,80.30
2018-11-25T09:02:55.114Z,80.38
2018-11-25T09:05:24.006Z,80.58
2018-11-25T09:07:52.931Z,80.96
2018-11-25T09:10:22.398Z,80.47
2018-11-25T09:12:55.892Z,80.43
2018-11-25T09:15:28.858Z,79.02
2018-11-25T09:17:57.877Z,79.81
2018-11-25T09:20:26.796Z,80.02
2018-11-25T09:22:55.754Z,80.48
2018-11-25T09:25:31.490Z,80.33
2018-11-25T09:28:01.489Z,80.42
2018-11-25T09:30:31.451Z,79.90
2018-11-25T09:33:00.356Z,80.06
2018-11-25T09:35:29.378Z,79.72
2018-11-25T09:37:58.163Z,79.74
2018-11-25T09:40:27.941Z,79.73
2018-11-25T09:42:56.836Z,78.78
2018-11-25T09:45:25.769Z,79.82
2018-11-25T09:47:54.680Z,79.67
2018-11-25T09:50:24.167Z,79.22
2018-11-25T09:52:53.094Z,79.34
2018-11-25T09:55:23.087Z,79.21
2018-11-25T09:58:01.553Z,78.96
2018-11-25T10:00:34.296Z,79.41
2018-11-25T10:03:04.269Z,79.83
2018-11-25T10:05:33.193Z,79.81
2018-11-25T10:08:02.092Z,79.77
2018-11-25T10:10:30.971Z,79.59
2018-11-25T10:12:59.901Z,80.06
2018-11-25T10:15:29.461Z,79.80
2018-11-25T10:17:59.859Z,79.52
2018-11-25T10:20:28.593Z,78.45
2018-11-25T10:22:57.507Z,79.27
2018-11-25T10:25:26.420Z,79.28
2018-11-25T10:27:55.318Z,79.11
2018-11-25T10:30:28.452Z,79.08
2018-11-25T10:33:04.716Z,79.04
2018-11-25T10:35:33.645Z,79.12
2018-11-25T10:38:02.569Z,79.21
2018-11-25T10:40:31.495Z,79.04
2018-11-25T10:43:00.423Z,79.11
2018-11-25T10:45:29.315Z,79.24
2018-11-25T10:47:58.554Z,78.77
2018-11-25T10:50:27.480Z,79.30
2018-11-25T10:52:56.487Z,78.96
2018-11-25T10:55:25.305Z,79.02
2018-11-25T10:57:54.418Z,79.35
2018-11-25T11:00:45.394Z,79.27
2018-11-25T11:03:32.150Z,78.90
2018-11-25T11:06:18.519Z,79.32
2018-11-25T11:08:47.439Z,79.50
2018-11-25T11:11:16.383Z,79.58
2018-11-25T11:13:45.282Z,79.46
2018-11-25T11:16:14.161Z,79.23
2018-11-25T11:18:43.087Z,79.29
2018-11-25T11:21:11.977Z,78.94
2018-11-25T11:23:40.911Z,79.36
2018-11-25T11:26:28.116Z,78.27
2018-11-25T11:28:57.045Z,79.14
2018-11-25T11:31:25.928Z,79.18
2018-11-25T11:33:54.844Z,79.71
2018-11-25T11:36:23.743Z,78.19
2018-11-25T11:38:53.194Z,79.23
2018-11-25T11:41:22.094Z,79.19
2018-11-25T11:43:51.127Z,78.92
2018-11-25T11:46:20.026Z,78.84
2018-11-25T11:48:48.983Z,78.77
2018-11-25T11:51:25.326Z,78.67
2018-11-25T11:53:46.852Z,78.83
2018-11-25T11:56:15.869Z,79.25
2018-11-25T11:58:44.816Z,78.97
2018-11-25T12:01:13.706Z,79.03
2018-11-25T12:03:42.622Z,79.00
2018-11-25T12:06:11.529Z,79.29
2018-11-25T12:08:40.418Z,77.85
2018-11-25T12:11:09.623Z,79.16
2018-11-25T12:13:38.517Z,79.33
2018-11-25T12:16:07.752Z,79.60
2018-11-25T12:18:36.674Z,79.42
2018-11-25T12:21:05.897Z,78.28
2018-11-25T12:23:34.774Z,79.06
2018-11-25T12:26:03.728Z,78.89
2018-11-25T12:28:32.631Z,78.93
2018-11-25T12:31:01.549Z,79.39
2018-11-25T12:33:30.430Z,79.22
2018-11-25T12:35:59.335Z,79.42
2018-11-25T12:38:28.207Z,79.53
2018-11-25T12:40:57.113Z,79.48
2018-11-25T12:43:26.052Z,79.51
2018-11-25T12:45:54.975Z,79.73
2018-11-25T12:48:23.995Z,79.50
2018-11-25T12:50:52.828Z,79.88
2018-11-25T12:53:21.761Z,80.05
2018-11-25T12:55:50.704Z,79.67
2018-11-25T12:58:19.636Z,79.72
2018-11-25T13:00:49.341Z,79.80
2018-11-25T13:03:18.234Z,79.72
2018-11-25T13:05:47.138Z,79.94
2018-11-25T13:08:16.065Z,80.13
2018-11-25T13:10:44.929Z,79.80
2018-11-25T13:13:13.796Z,79.70
2018-11-25T13:15:42.708Z,79.65
2018-11-25T13:18:11.804Z,79.87
2018-11-25T13:20:40.683Z,79.75
2018-11-25T13:23:09.786Z,80.13
2018-11-25T13:25:38.724Z,80.51
2018-11-25T13:28:07.964Z,80.50
2018-11-25T13:30:36.838Z,80.48
2018-11-25T13:33:06.869Z,80.52
2018-11-25T13:35:37.494Z,80.42
2018-11-25T13:38:07.107Z,80.05
2018-11-25T13:40:35.995Z,80.05
2018-11-25T13:43:05.189Z,80.21
2018-11-25T13:45:34.077Z,79.43
2018-11-25T13:48:03.036Z,80.14
2018-11-25T13:50:31.965Z,80.15
2018-11-25T13:53:00.882Z,80.25
2018-11-25T13:55:29.793Z,78.99
2018-11-25T13:57:58.678Z,79.88
2018-11-25T14:00:54.805Z,79.64
2018-11-25T14:03:28.469Z,79.61
2018-11-25T14:05:57.386Z,79.40
2018-11-25T14:08:26.251Z,79.87
2018-11-25T14:11:12.021Z,80.20
2018-11-25T14:13:40.868Z,80.16
2018-11-25T14:16:11.985Z,80.46
2018-11-25T14:18:40.959Z,80.39
2018-11-25T14:21:09.926Z,80.41
2018-11-25T14:23:38.828Z,80.29
2018-11-25T14:26:24.842Z,80.49
2018-11-25T14:28:53.749Z,80.44
2018-11-25T14:31:22.642Z,80.89
2018-11-25T14:33:51.543Z,81.09
2018-11-25T14:36:20.450Z,80.92
2018-11-25T14:38:49.332Z,81.13
2018-11-25T14:41:18.245Z,80.88
2018-11-25T14:43:47.175Z,81.09
2018-11-25T14:46:16.136Z,81.11
2018-11-25T14:48:45.116Z,81.12
2018-11-25T14:51:14.080Z,81.23
2018-11-25T14:53:42.975Z,80.92
2018-11-25T14:56:11.910Z,81.08
2018-11-25T14:58:40.899Z,81.23
2018-11-25T15:01:09.817Z,81.35
2018-11-25T15:03:38.728Z,81.21
2018-11-25T15:06:07.803Z,80.47
2018-11-25T15:08:36.684Z,81.55
2018-11-25T15:11:05.708Z,81.42
2018-11-25T15:13:34.653Z,80.19
2018-11-25T15:16:04.641Z,81.12
2018-11-25T15:18:33.567Z,81.08
2018-11-25T15:21:02.654Z,80.94
2018-11-25T15:23:31.596Z,81.05
2018-11-25T15:26:00.487Z,81.11
2018-11-25T15:28:29.394Z,81.15
2018-11-25T15:30:58.379Z,81.31
2018-11-25T15:33:27.226Z,81.28
2018-11-25T15:35:56.161Z,81.02
2018-11-25T15:38:25.040Z,80.83
2018-11-25T15:40:53.947Z,81.67
2018-11-25T15:43:22.927Z,81.34
2018-11-25T15:45:51.952Z,81.59
2018-11-25T15:48:26.875Z,81.74
2018-11-25T15:50:54.911Z,81.73
2018-11-25T15:53:23.804Z,82.13
2018-11-25T15:55:57.412Z,82.37
2018-11-25T15:58:26.415Z,82.39
2018-11-25T16:00:55.300Z,82.56
2018-11-25T16:03:24.188Z,82.43
2018-11-25T16:05:58.820Z,82.90
2018-11-25T16:08:27.720Z,82.39
2018-11-25T16:10:56.704Z,82.50
2018-11-25T16:13:25.613Z,82.32
2018-11-25T16:15:54.510Z,82.32
2018-11-25T16:18:23.429Z,82.17
2018-11-25T16:20:52.329Z,82.56
2018-11-25T16:23:21.262Z,82.21
2018-11-25T16:25:55.164Z,82.12
2018-11-25T16:28:29.479Z,82.71
2018-11-25T16:30:58.403Z,82.79
2018-11-25T16:33:27.329Z,82.76
2018-11-25T16:35:56.222Z,82.50
2018-11-25T16:38:25.128Z,82.40
2018-11-25T16:40:54.040Z,82.56
2018-11-25T16:43:22.963Z,82.57
2018-11-25T16:45:51.878Z,82.18
2018-11-25T16:48:20.794Z,82.24
2018-11-25T16:50:49.725Z,82.40
2018-11-25T16:53:18.603Z,81.45
2018-11-25T16:55:47.509Z,82.21
2018-11-25T16:58:16.483Z,82.13
2018-11-25T17:00:45.406Z,82.06
2018-11-25T17:03:14.279Z,82.01
2018-11-25T17:05:44.992Z,82.17
2018-11-25T17:08:25.536Z,81.89
2018-11-25T17:10:54.462Z,82.22
2018-11-25T17:13:23.390Z,82.11
2018-11-25T17:15:52.293Z,82.15
2018-11-25T17:18:21.216Z,82.37
2018-11-25T17:20:50.125Z,82.40
2018-11-25T17:23:19.052Z,82.33
2018-11-25T17:25:48.012Z,82.47
2018-11-25T17:28:16.958Z,82.27
2018-11-25T17:30:45.883Z,82.20
2018-11-25T17:33:14.791Z,82.29
2018-11-25T17:35:43.727Z,82.24
2018-11-25T17:38:12.632Z,82.58
2018-11-25T17:40:41.559Z,82.65
2018-11-25T17:43:15.544Z,82.60
2018-11-25T17:45:44.490Z,82.68
2018-11-25T17:48:13.339Z,82.41
2018-11-25T17:50:42.324Z,81.85
2018-11-25T17:53:11.251Z,82.51
2018-11-25T17:55:40.170Z,82.59
2018-11-25T17:58:09.094Z,82.48
2018-11-25T18:00:43.895Z,82.50
2018-11-25T18:03:20.074Z,82.45
2018-11-25T18:05:49.019Z,82.31
2018-11-25T18:08:17.967Z,82.34
2018-11-25T18:10:46.887Z,82.63
2018-11-25T18:13:16.911Z,82.48
2018-11-25T18:15:45.932Z,82.51
2018-11-25T18:18:19.777Z,82.57
2018-11-25T18:20:53.602Z,82.83
2018-11-25T18:23:22.623Z,82.61
2018-11-25T18:25:51.393Z,83.17
2018-11-25T18:28:20.400Z,82.79
2018-11-25T18:30:49.272Z,82.58
2018-11-25T18:33:18.193Z,81.69
2018-11-25T18:35:47.126Z,82.70
2018-11-25T18:38:16.055Z,82.16
2018-11-25T18:40:45.004Z,82.21
2018-11-25T18:43:13.947Z,82.20
2018-11-25T18:45:42.910Z,82.22
2018-11-25T18:48:13.309Z,82.53
2018-11-25T18:50:42.276Z,82.45
2018-11-25T18:53:11.749Z,81.27
2018-11-25T18:55:39.612Z,82.11
2018-11-25T18:58:08.503Z,82.18
2018-11-25T19:00:58.350Z,82.16
2018-11-25T19:03:27.337Z,82.12
2018-11-25T19:05:56.195Z,81.99
2018-11-25T19:08:25.086Z,82.22
2018-11-25T19:10:54.040Z,82.32
2018-11-25T19:13:22.973Z,82.60
2018-11-25T19:15:51.919Z,82.07
2018-11-25T19:18:21.091Z,82.28
2018-11-25T19:20:49.989Z,82.17
2018-11-25T19:23:18.947Z,82.32
2018-11-25T19:25:47.825Z,82.26
2018-11-25T19:28:16.736Z,82.57
2018-11-25T19:30:45.637Z,82.65
2018-11-25T19:33:14.536Z,82.23
2018-11-25T19:35:43.459Z,82.88
2018-11-25T19:38:12.384Z,81.46
2018-11-25T19:40:41.262Z,82.29
2018-11-25T19:43:10.187Z,82.33
2018-11-25T19:45:39.111Z,82.52
2018-11-25T19:48:08.059Z,82.68
2018-11-25T19:50:38.163Z,82.74
2018-11-25T19:53:08.941Z,83.03
2018-11-25T19:55:37.977Z,82.89
2018-11-25T19:58:07.257Z,82.80
2018-11-25T20:00:36.226Z,82.96
2018-11-25T20:03:05.548Z,82.85
2018-11-25T20:05:34.468Z,82.96
2018-11-25T20:08:03.428Z,82.77
2018-11-25T20:10:32.368Z,82.40
2018-11-25T20:13:01.252Z,81.61
2018-11-25T20:15:30.201Z,82.24
2018-11-25T20:17:59.121Z,82.32
2018-11-25T20:20:28.064Z,82.34
2018-11-25T20:22:56.933Z,82.62
2018-11-25T20:25:25.836Z,82.37
2018-11-25T20:27:55.784Z,82.60
2018-11-25T20:30:29.175Z,82.27
2018-11-25T20:33:15.573Z,81.57
2018-11-25T20:35:44.661Z,82.67
2018-11-25T20:38:31.604Z,82.54
2018-11-25T20:41:00.482Z,82.92
2018-11-25T20:43:29.437Z,82.75
2018-11-25T20:46:16.192Z,82.93
2018-11-25T20:48:45.074Z,82.49
2018-11-25T20:51:13.977Z,82.33
2018-11-25T20:53:59.577Z,82.21
2018-11-25T20:56:28.426Z,82.31
2018-11-25T20:58:57.333Z,82.56
2018-11-25T21:01:26.248Z,83.02
2018-11-25T21:03:55.138Z,82.88
2018-11-25T21:06:24.095Z,82.99
2018-11-25T21:08:53.007Z,82.98
2018-11-25T21:11:21.925Z,82.37
2018-11-25T21:13:50.896Z,82.92
2018-11-25T21:16:19.822Z,82.98
2018-11-25T21:18:48.741Z,82.64
2018-11-25T21:21:17.660Z,82.86
2018-11-25T21:23:46.562Z,81.88
2018-11-25T21:26:15.454Z,82.61
2018-11-25T21:28:44.358Z,82.73
2018-11-25T21:31:13.257Z,82.71
2018-11-25T21:33:42.209Z,82.96
2018-11-25T21:36:11.115Z,82.80
2018-11-25T21:38:40.068Z,82.63
2018-11-25T21:41:09.040Z,82.81
2018-11-25T21:43:37.972Z,81.87
2018-11-25T21:46:06.925Z,82.41
2018-11-25T21:48:35.852Z,82.63
2018-11-25T21:51:04.774Z,82.71
2018-11-25T21:53:33.724Z,82.80
2018-11-25T21:56:02.688Z,82.86
2018-11-25T21:58:31.536Z,82.88
2018-11-25T22:01:00.454Z,82.95
2018-11-25T22:03:29.360Z,82.80
2018-11-25T22:05:58.291Z,83.01
2018-11-25T22:08:27.208Z,83.23
2018-11-25T22:10:56.117Z,82.20
2018-11-25T22:13:25.023Z,82.81
2018-11-25T22:15:53.934Z,82.93
2018-11-25T22:18:22.871Z,82.77
2018-11-25T22:20:51.778Z,82.61
2018-11-25T22:23:20.702Z,82.54
2018-11-25T22:25:49.638Z,82.91
2018-11-25T22:28:18.567Z,83.18
2018-11-25T22:30:47.444Z,82.99
2018-11-25T22:33:16.355Z,82.64
2018-11-25T22:35:45.306Z,82.93
2018-11-25T22:38:14.265Z,82.96
2018-11-25T22:40:43.216Z,82.99
2018-11-25T22:43:12.088Z,82.10
2018-11-25T22:45:40.998Z,82.79
2018-11-25T22:48:10.025Z,82.73
2018-11-25T22:50:38.945Z,82.74
2018-11-25T22:53:07.955Z,82.69
2018-11-25T22:55:36.922Z,82.49
2018-11-25T22:58:05.990Z,82.47
2018-11-25T23:00:36.536Z,82.67
2018-11-25T23:03:05.875Z,82.81
2018-11-25T23:05:55.501Z,82.19
2018-11-25T23:08:24.396Z,83.52
2018-11-25T23:10:53.296Z,83.50
2018-11-25T23:13:22.240Z,83.22
2018-11-25T23:15:51.234Z,81.87
2018-11-25T23:18:20.161Z,82.73
2018-11-25T23:20:49.134Z,83.09
2018-11-25T23:23:18.055Z,82.92
2018-11-25T23:25:46.985Z,82.82
2018-11-25T23:28:15.942Z,81.78
2018-11-25T23:30:44.871Z,82.75
2018-11-25T23:33:13.889Z,81.85
2018-11-25T23:35:42.742Z,82.55
2018-11-25T23:38:11.659Z,82.36
2018-11-25T23:40:40.548Z,82.37
2018-11-25T23:43:09.511Z,82.27
2018-11-25T23:45:38.448Z,82.45
2018-11-25T23:48:07.504Z,82.34
2018-11-25T23:50:36.332Z,82.47
2018-11-25T23:53:06.438Z,82.36
2018-11-25T23:55:35.369Z,82.42
2018-11-25T23:58:04.296Z,82.23
